Terminal Aerodrome Forecast
Issued by NWS Wilmington, OH

Current Version | Previous Version | Text Only | Print | Product List | Glossary Off
Versions: 1 2 3 4 5 6 7 8 9 10 11 12 13 14 15 16 17

000
FTUS41 KILN 080309 AAA
TAFCMH
TAF AMD
KCMH 080309Z 0803/0824 28010KT P6SM OVC028
     FM080400 27008KT P6SM FEW028 SCT250
     FM081300 23008KT P6SM SCT250=

USA.gov is the U.S. government's official web portal to all federal, state and local government web resources and services.